Řízení letového provozu České republiky
Letiste: LKNA Aktualizace: 20.01.2019 11:01:06  UTC
 METAR LKNA 20.01. 11:00 ...
METAR LKNA 201100Z 15003KT 120V200 9999 BKN019 OVC024 M02/M06 Q1014 NOSIG RMK WHT WHT=
 TAF LKNA 20.01. 05:00 ...
TAF LKNA 200500Z 2006/2106 10005KT 9999 BKN025      TEMPO 2006/2012 4000 -SN BR OVC015      BECMG 2014/2016 VRB02KT SCT025      BECMG 2018/2020 CAVOK      PROB30 2021/2106 0800 FZFG BKN002=